createdAt,value
2023-07-09T00:00:39.563Z,1593.00
2023-07-09T00:01:39.745Z,1607.00
2023-07-09T00:02:39.761Z,1605.00
2023-07-09T00:03:39.764Z,1608.00
2023-07-09T00:04:39.826Z,1614.00
2023-07-09T00:05:39.895Z,1600.00
2023-07-09T00:06:39.949Z,1613.00
2023-07-09T00:07:40.029Z,1617.00
2023-07-09T00:08:40.025Z,1619.00
2023-07-09T00:09:40.112Z,1622.00
2023-07-09T00:10:40.216Z,1611.00
2023-07-09T00:11:40.182Z,1616.00
2023-07-09T00:12:40.265Z,1618.00
2023-07-09T00:13:40.327Z,1622.00
2023-07-09T00:14:40.380Z,1614.00
2023-07-09T00:15:40.415Z,1626.00
2023-07-09T00:16:40.578Z,1616.00
2023-07-09T00:17:40.541Z,1614.00
2023-07-09T00:18:40.561Z,1614.00
2023-07-09T00:19:40.631Z,1623.00
2023-07-09T00:20:40.683Z,1629.00
2023-07-09T00:21:40.762Z,1623.00
2023-07-09T00:22:40.793Z,1632.00
2023-07-09T00:23:40.855Z,1613.00
2023-07-09T00:24:40.884Z,1628.00
2023-07-09T00:25:40.936Z,1622.00
2023-07-09T00:26:41.069Z,1640.00
2023-07-09T00:27:41.048Z,1631.00
2023-07-09T00:28:41.092Z,1622.00
2023-07-09T00:29:41.153Z,1622.00
2023-07-09T00:30:41.212Z,1630.00
2023-07-09T00:31:41.326Z,1621.00
2023-07-09T00:32:41.321Z,1629.00
2023-07-09T00:33:41.364Z,1633.00
2023-07-09T00:34:41.393Z,1618.00
2023-07-09T00:35:41.524Z,1634.00
2023-07-09T00:36:41.522Z,1633.00
2023-07-09T00:37:41.556Z,1640.00
2023-07-09T00:38:41.607Z,1619.00
2023-07-09T00:39:41.676Z,1634.00
2023-07-09T00:40:41.716Z,1638.00
2023-07-09T00:41:41.783Z,1630.00
2023-07-09T00:42:41.840Z,1637.00
2023-07-09T00:43:41.882Z,1632.00
2023-07-09T00:44:41.912Z,1634.00
2023-07-09T00:45:41.947Z,1624.00
2023-07-09T00:46:42.127Z,1630.00
2023-07-09T00:47:42.092Z,1640.00
2023-07-09T00:48:42.106Z,1635.00
2023-07-09T00:49:42.128Z,1636.00
2023-07-09T00:50:42.221Z,1631.00
2023-07-09T00:51:42.331Z,1619.00
2023-07-09T00:52:42.271Z,1629.00
2023-07-09T00:53:42.363Z,1628.00
2023-07-09T00:54:42.384Z,1622.00
2023-07-09T00:55:42.394Z,1616.00
2023-07-09T00:56:42.443Z,1626.00
2023-07-09T00:57:42.495Z,1632.00
2023-07-09T00:58:42.552Z,1628.00
2023-07-09T00:59:42.556Z,1620.00
2023-07-09T01:00:42.611Z,1619.00
2023-07-09T01:01:42.678Z,1623.00
2023-07-09T01:02:42.772Z,1621.00
2023-07-09T01:03:42.801Z,1623.00
2023-07-09T01:04:42.853Z,1624.00
2023-07-09T01:05:42.931Z,1616.00
2023-07-09T01:06:42.900Z,1618.00
2023-07-09T01:07:42.964Z,1617.00
2023-07-09T01:08:43.000Z,1622.00
2023-07-09T01:09:43.024Z,1625.00
2023-07-09T01:10:44.003Z,1632.00
2023-07-09T01:11:43.092Z,1634.00
2023-07-09T01:12:43.130Z,1637.00
2023-07-09T01:13:43.161Z,1630.00
2023-07-09T01:14:43.211Z,1637.00
2023-07-09T01:15:43.214Z,1629.00
2023-07-09T01:16:43.221Z,1629.00
2023-07-09T01:17:43.277Z,1623.00
2023-07-09T01:18:43.275Z,1630.00
2023-07-09T01:19:43.312Z,1628.00
2023-07-09T01:20:43.328Z,1637.00
2023-07-09T01:21:43.351Z,1634.00
2023-07-09T01:22:43.361Z,1628.00
2023-07-09T01:23:43.406Z,1633.00
2023-07-09T01:24:43.446Z,1629.00
2023-07-09T01:25:43.460Z,1632.00
2023-07-09T01:26:43.460Z,1636.00
2023-07-09T01:27:43.525Z,1637.00
2023-07-09T01:28:43.561Z,1640.00
2023-07-09T01:29:45.920Z,1644.00
2023-07-09T01:30:43.770Z,1636.00
2023-07-09T01:31:43.847Z,1638.00
2023-07-09T01:32:43.823Z,1644.00
2023-07-09T01:33:43.763Z,1635.00
2023-07-09T01:34:43.775Z,1632.00
2023-07-09T01:35:43.821Z,1627.00
2023-07-09T01:36:43.793Z,1628.00
2023-07-09T01:37:43.778Z,1620.00
2023-07-09T01:38:43.784Z,1628.00
2023-07-09T01:39:43.789Z,1625.00
2023-07-09T01:40:43.757Z,1611.00
2023-07-09T01:41:43.780Z,1615.00
2023-07-09T01:42:43.784Z,1621.00
2023-07-09T01:43:43.834Z,1624.00
2023-07-09T01:44:43.842Z,1626.00
2023-07-09T01:45:43.878Z,1614.00
2023-07-09T01:46:45.197Z,1615.00
2023-07-09T01:47:43.997Z,1611.00
2023-07-09T01:48:43.952Z,1616.00
2023-07-09T01:49:43.974Z,1619.00
2023-07-09T01:50:43.966Z,1619.00
2023-07-09T01:51:43.972Z,1625.00
2023-07-09T01:52:43.991Z,1618.00
2023-07-09T01:53:43.994Z,1608.00
2023-07-09T01:54:44.017Z,1625.00
2023-07-09T01:55:43.998Z,1621.00
2023-07-09T01:56:44.348Z,1626.00
2023-07-09T01:57:44.418Z,1616.00
2023-07-09T01:58:44.148Z,1623.00
2023-07-09T01:59:44.191Z,1623.00
2023-07-09T02:00:44.258Z,1616.00
2023-07-09T02:01:44.304Z,1623.00
2023-07-09T02:02:44.403Z,1620.00
2023-07-09T02:03:44.409Z,1599.00
2023-07-09T02:04:44.463Z,1619.00
2023-07-09T02:05:44.449Z,1607.00
2023-07-09T02:06:44.518Z,1619.00
2023-07-09T02:07:44.515Z,1605.00
2023-07-09T02:08:44.520Z,1615.00
2023-07-09T02:09:44.554Z,1607.00
2023-07-09T02:10:44.504Z,1615.00
2023-07-09T02:11:44.517Z,1602.00
2023-07-09T02:12:44.490Z,1601.00
2023-07-09T02:13:44.577Z,1601.00
2023-07-09T02:14:44.485Z,1603.00
2023-07-09T02:15:44.583Z,1612.00
2023-07-09T02:16:44.689Z,1604.00
2023-07-09T02:17:44.532Z,1599.00
2023-07-09T02:18:44.523Z,1598.00
2023-07-09T02:19:44.508Z,1589.00
2023-07-09T02:20:44.515Z,1597.00
2023-07-09T02:21:44.532Z,1600.00
2023-07-09T02:22:44.515Z,1593.00
2023-07-09T02:23:44.526Z,1585.00
2023-07-09T02:24:44.474Z,1585.00
2023-07-09T02:25:44.489Z,1577.00
2023-07-09T02:26:44.569Z,1584.00
2023-07-09T02:27:44.485Z,1588.00
2023-07-09T02:28:44.498Z,1590.00
2023-07-09T02:29:44.457Z,1574.00
2023-07-09T02:30:44.493Z,1586.00
2023-07-09T02:31:44.469Z,1582.00
2023-07-09T02:32:44.498Z,1583.00
2023-07-09T02:33:44.446Z,1578.00
2023-07-09T02:34:44.443Z,1579.00
2023-07-09T02:35:44.447Z,1578.00
2023-07-09T02:36:44.469Z,1578.00
2023-07-09T02:37:44.454Z,1573.00
2023-07-09T02:38:44.447Z,1569.00
2023-07-09T02:39:44.434Z,1572.00
2023-07-09T02:40:44.423Z,1569.00
2023-07-09T02:41:44.430Z,1574.00
2023-07-09T02:42:44.424Z,1564.00
2023-07-09T02:43:44.395Z,1567.00
2023-07-09T02:44:44.442Z,1556.00
2023-07-09T02:45:44.406Z,1548.00
2023-07-09T02:46:44.416Z,1549.00
2023-07-09T02:47:44.500Z,1531.00
2023-07-09T02:48:44.401Z,1547.00
2023-07-09T02:49:44.370Z,1548.00
2023-07-09T02:50:44.394Z,1556.00
2023-07-09T02:51:44.391Z,1541.00
2023-07-09T02:52:44.387Z,1544.00
2023-07-09T02:53:44.360Z,1546.00
2023-07-09T02:54:44.380Z,1553.00
2023-07-09T02:55:44.362Z,1546.00
2023-07-09T02:56:44.376Z,1534.00
2023-07-09T02:57:44.383Z,1535.00
2023-07-09T02:58:44.350Z,1543.00
2023-07-09T02:59:44.374Z,1546.00
2023-07-09T03:00:44.356Z,1537.00
2023-07-09T03:01:44.401Z,1537.00
2023-07-09T03:02:44.362Z,1552.00
2023-07-09T03:03:44.418Z,1544.00
2023-07-09T03:04:44.339Z,1538.00
2023-07-09T03:05:44.364Z,1538.00
2023-07-09T03:06:44.349Z,1539.00
2023-07-09T03:07:44.337Z,1537.00
2023-07-09T03:08:44.333Z,1538.00
2023-07-09T03:09:44.351Z,1541.00
2023-07-09T03:10:44.317Z,1537.00
2023-07-09T03:11:44.312Z,1540.00
2023-07-09T03:12:44.284Z,1537.00
2023-07-09T03:13:44.365Z,1531.00
2023-07-09T03:14:44.291Z,1525.00
2023-07-09T03:15:44.302Z,1528.00
2023-07-09T03:16:44.344Z,1517.00
2023-07-09T03:17:44.315Z,1526.00
2023-07-09T03:18:44.258Z,1518.00
2023-07-09T03:19:44.306Z,1517.00
2023-07-09T03:20:44.296Z,1511.00
2023-07-09T03:21:44.290Z,1508.00
2023-07-09T03:22:44.253Z,1517.00
2023-07-09T03:23:44.242Z,1508.00
2023-07-09T03:24:44.274Z,1506.00
2023-07-09T03:25:44.268Z,1504.00
2023-07-09T03:26:44.271Z,1502.00
2023-07-09T03:27:44.248Z,1508.00
2023-07-09T03:28:44.264Z,1511.00
2023-07-09T03:29:44.294Z,1494.00
2023-07-09T03:30:44.269Z,1496.00
2023-07-09T03:31:44.470Z,1488.00
2023-07-09T03:32:44.366Z,1493.00
2023-07-09T03:33:44.293Z,1482.00
2023-07-09T03:34:44.287Z,1494.00
2023-07-09T03:35:44.269Z,1494.00
2023-07-09T03:36:44.266Z,1482.00
2023-07-09T03:37:44.267Z,1488.00
2023-07-09T03:38:44.263Z,1490.00
2023-07-09T03:39:44.303Z,1493.00
2023-07-09T03:40:44.288Z,1483.00
2023-07-09T03:41:44.271Z,1493.00
2023-07-09T03:42:44.269Z,1482.00
2023-07-09T03:43:44.317Z,1480.00
2023-07-09T03:44:44.296Z,1482.00
2023-07-09T03:45:44.309Z,1493.00
2023-07-09T03:46:44.314Z,1494.00
2023-07-09T03:47:44.368Z,1477.00
2023-07-09T03:48:44.405Z,1471.00
2023-07-09T03:49:44.301Z,1468.00
2023-07-09T03:50:44.281Z,1478.00
2023-07-09T03:51:44.277Z,1468.00
2023-07-09T03:52:44.310Z,1461.00
2023-07-09T03:53:44.312Z,1471.00
2023-07-09T03:54:44.300Z,1469.00
2023-07-09T03:55:44.329Z,1462.00
2023-07-09T03:56:44.309Z,1471.00
2023-07-09T03:57:44.306Z,1472.00
2023-07-09T03:58:44.301Z,1484.00
2023-07-09T03:59:44.305Z,1472.00
2023-07-09T04:00:44.303Z,1457.00
2023-07-09T04:01:44.312Z,1471.00
2023-07-09T04:02:44.350Z,1460.00
2023-07-09T04:03:44.411Z,1455.00
2023-07-09T04:04:44.338Z,1451.00
2023-07-09T04:05:44.353Z,1461.00
2023-07-09T04:06:44.342Z,1448.00
2023-07-09T04:07:44.343Z,1458.00
2023-07-09T04:08:44.361Z,1452.00
2023-07-09T04:09:44.350Z,1448.00
2023-07-09T04:10:44.360Z,1443.00
2023-07-09T04:11:44.368Z,1450.00
2023-07-09T04:12:44.385Z,1437.00
2023-07-09T04:13:44.406Z,1452.00
2023-07-09T04:14:44.403Z,1441.00
2023-07-09T04:15:44.394Z,1441.00
2023-07-09T04:16:44.473Z,1424.00
2023-07-09T04:17:44.482Z,1444.00
2023-07-09T04:18:44.387Z,1419.00
2023-07-09T04:19:44.410Z,1438.00
2023-07-09T04:20:44.374Z,1430.00
2023-07-09T04:21:44.359Z,1440.00
2023-07-09T04:22:44.356Z,1439.00
2023-07-09T04:23:44.855Z,1436.00
2023-07-09T04:24:44.381Z,1426.00
2023-07-09T04:25:44.371Z,1430.00
2023-07-09T04:26:44.394Z,1438.00
2023-07-09T04:27:44.400Z,1435.00
2023-07-09T04:28:44.404Z,1433.00
2023-07-09T04:29:44.434Z,1428.00
2023-07-09T04:30:44.408Z,1430.00
2023-07-09T04:31:44.493Z,1429.00
2023-07-09T04:32:44.661Z,1430.00
2023-07-09T04:33:44.479Z,1430.00
2023-07-09T04:34:44.506Z,1426.00
2023-07-09T04:35:44.450Z,1420.00
2023-07-09T04:36:44.497Z,1420.00
2023-07-09T04:37:44.492Z,1420.00
2023-07-09T04:38:44.501Z,1428.00
2023-07-09T04:39:44.505Z,1428.00
2023-07-09T04:40:44.519Z,1418.00
2023-07-09T04:41:44.474Z,1415.00
2023-07-09T04:42:44.506Z,1414.00
2023-07-09T04:43:44.491Z,1424.00
2023-07-09T04:44:44.513Z,1414.00
2023-07-09T04:45:44.541Z,1416.00
2023-07-09T04:46:44.570Z,1416.00
2023-07-09T04:47:44.505Z,1407.00
2023-07-09T04:48:44.513Z,1412.00
2023-07-09T04:49:44.522Z,1413.00
2023-07-09T04:50:44.507Z,1410.00
2023-07-09T04:51:44.513Z,1399.00
2023-07-09T04:52:44.498Z,1403.00
2023-07-09T04:53:44.531Z,1403.00
2023-07-09T04:54:44.559Z,1414.00
2023-07-09T04:55:44.560Z,1401.00
2023-07-09T04:56:44.572Z,1401.00
2023-07-09T04:57:44.565Z,1418.00
2023-07-09T04:58:44.582Z,1408.00
2023-07-09T04:59:44.578Z,1380.00
2023-07-09T05:00:44.613Z,1391.00
2023-07-09T05:01:44.760Z,1388.00
2023-07-09T05:02:44.696Z,1400.00
2023-07-09T05:03:44.651Z,1393.00
2023-07-09T05:04:44.611Z,1386.00
2023-07-09T05:05:44.637Z,1385.00
2023-07-09T05:06:44.646Z,1390.00
2023-07-09T05:07:44.669Z,1398.00
2023-07-09T05:08:44.668Z,1393.00
2023-07-09T05:09:44.657Z,1380.00
2023-07-09T05:10:44.673Z,1390.00
2023-07-09T05:11:44.652Z,1386.00
2023-07-09T05:12:44.692Z,1401.00
2023-07-09T05:13:44.698Z,1385.00
2023-07-09T05:14:44.702Z,1393.00
2023-07-09T05:15:44.780Z,1390.00
2023-07-09T05:16:44.695Z,1397.00
2023-07-09T05:17:44.713Z,1395.00
2023-07-09T05:18:44.732Z,1388.00
2023-07-09T05:19:44.732Z,1389.00
2023-07-09T05:20:44.752Z,1391.00
2023-07-09T05:21:44.749Z,1364.00
2023-07-09T05:22:44.737Z,1371.00
2023-07-09T05:23:44.738Z,1376.00
2023-07-09T05:24:44.777Z,1369.00
2023-07-09T05:25:44.793Z,1362.00
2023-07-09T05:26:44.796Z,1360.00
2023-07-09T05:27:44.776Z,1359.00
2023-07-09T05:28:44.820Z,1352.00
2023-07-09T05:29:44.833Z,1367.00
2023-07-09T05:30:44.848Z,1364.00
2023-07-09T05:31:44.903Z,1351.00
2023-07-09T05:32:44.881Z,1361.00
2023-07-09T05:33:44.856Z,1356.00
2023-07-09T05:34:44.834Z,1346.00
2023-07-09T05:35:44.879Z,1353.00
2023-07-09T05:36:44.856Z,1344.00
2023-07-09T05:37:44.863Z,1342.00
2023-07-09T05:38:44.874Z,1350.00
2023-07-09T05:39:44.899Z,1333.00
2023-07-09T05:40:44.897Z,1349.00
2023-07-09T05:41:44.882Z,1335.00
2023-07-09T05:42:44.908Z,1340.00
2023-07-09T05:43:44.906Z,1339.00
2023-07-09T05:44:44.897Z,1325.00
2023-07-09T05:45:44.917Z,1325.00
2023-07-09T05:46:44.929Z,1326.00
2023-07-09T05:47:44.987Z,1327.00
2023-07-09T05:48:44.949Z,1328.00
2023-07-09T05:49:44.927Z,1321.00
2023-07-09T05:50:44.981Z,1320.00
2023-07-09T05:51:44.976Z,1320.00
2023-07-09T05:52:44.958Z,1328.00
2023-07-09T05:53:44.991Z,1315.00
2023-07-09T05:54:44.980Z,1317.00
2023-07-09T05:55:44.978Z,1305.00
2023-07-09T05:56:44.998Z,1307.00
2023-07-09T05:57:44.983Z,1306.00
2023-07-09T05:58:45.012Z,1313.00
2023-07-09T05:59:44.992Z,1312.00
2023-07-09T06:00:45.147Z,1301.00
2023-07-09T06:01:45.018Z,1315.00
2023-07-09T06:02:45.147Z,1295.00
2023-07-09T06:03:45.098Z,1312.00
2023-07-09T06:04:45.013Z,1296.00
2023-07-09T06:05:45.014Z,1296.00
2023-07-09T06:06:44.998Z,1287.00
2023-07-09T06:07:45.050Z,1287.00
2023-07-09T06:08:45.056Z,1289.00
2023-07-09T06:09:45.074Z,1287.00
2023-07-09T06:10:45.013Z,1278.00
2023-07-09T06:11:45.058Z,1277.00
2023-07-09T06:12:45.020Z,1277.00
2023-07-09T06:13:45.017Z,1281.00
2023-07-09T06:14:45.026Z,1279.00
2023-07-09T06:15:44.985Z,1281.00
2023-07-09T06:16:45.098Z,1283.00
2023-07-09T06:17:45.032Z,1275.00
2023-07-09T06:18:45.005Z,1247.00
2023-07-09T06:19:44.980Z,1229.00
2023-07-09T06:20:44.991Z,1238.00
2023-07-09T06:21:44.997Z,1240.00
2023-07-09T06:22:45.017Z,1245.00
2023-07-09T06:23:44.987Z,1256.00
2023-07-09T06:24:44.991Z,1238.00
2023-07-09T06:25:44.988Z,1252.00
2023-07-09T06:26:44.997Z,1247.00
2023-07-09T06:27:44.987Z,1238.00
2023-07-09T06:28:44.987Z,1223.00
2023-07-09T06:29:45.021Z,1201.00
2023-07-09T06:30:45.009Z,1211.00
2023-07-09T06:31:44.987Z,1228.00
2023-07-09T06:32:45.040Z,1211.00
2023-07-09T06:33:44.966Z,1202.00
2023-07-09T06:34:44.970Z,1209.00
2023-07-09T06:35:45.009Z,1211.00
2023-07-09T06:36:44.997Z,1209.00
2023-07-09T06:37:45.020Z,1202.00
2023-07-09T06:38:45.009Z,1204.00
2023-07-09T06:39:44.989Z,1188.00
2023-07-09T06:40:44.984Z,1193.00
2023-07-09T06:41:44.986Z,1178.00
2023-07-09T06:42:44.974Z,1168.00
2023-07-09T06:43:44.989Z,1166.00
2023-07-09T06:44:45.005Z,1182.00
2023-07-09T06:45:44.985Z,1184.00
2023-07-09T06:46:45.049Z,1188.00
2023-07-09T06:47:44.993Z,1187.00
2023-07-09T06:48:44.967Z,1200.00
2023-07-09T06:49:44.980Z,1198.00
2023-07-09T06:50:44.987Z,1196.00
2023-07-09T06:51:44.957Z,1214.00
2023-07-09T06:52:44.963Z,1203.00
2023-07-09T06:53:45.008Z,1217.00
2023-07-09T06:54:44.983Z,1215.00
2023-07-09T06:55:44.964Z,1198.00
2023-07-09T06:56:44.970Z,1225.00
2023-07-09T06:57:45.023Z,1229.00
2023-07-09T06:58:45.062Z,1237.00
2023-07-09T06:59:45.049Z,1234.00
2023-07-09T07:00:45.039Z,1240.00
2023-07-09T07:01:45.147Z,1257.00
2023-07-09T07:02:45.165Z,1238.00
2023-07-09T07:03:45.180Z,1252.00
2023-07-09T07:04:45.124Z,1247.00
2023-07-09T07:05:45.135Z,1239.00
2023-07-09T07:06:45.179Z,1233.00
2023-07-09T07:07:45.220Z,1242.00
2023-07-09T07:08:45.247Z,1222.00
2023-07-09T07:09:45.301Z,1227.00
2023-07-09T07:10:45.349Z,1241.00
2023-07-09T07:11:45.375Z,1218.00
2023-07-09T07:12:45.474Z,1225.00
2023-07-09T07:13:45.559Z,1227.00
2023-07-09T07:14:45.602Z,1226.00
2023-07-09T07:15:45.658Z,1240.00
2023-07-09T07:16:45.721Z,1242.00
2023-07-09T07:17:45.781Z,1237.00
2023-07-09T07:18:45.821Z,1251.00
2023-07-09T07:19:45.865Z,1236.00
2023-07-09T07:20:45.946Z,1246.00
2023-07-09T07:21:45.980Z,1246.00
2023-07-09T07:22:46.071Z,1257.00
2023-07-09T07:23:46.085Z,1269.00
2023-07-09T07:24:46.209Z,1255.00
2023-07-09T07:25:46.231Z,1249.00
2023-07-09T07:26:46.313Z,1235.00
2023-07-09T07:27:46.405Z,1255.00
2023-07-09T07:28:46.413Z,1237.00
2023-07-09T07:29:46.460Z,1229.00
2023-07-09T07:30:46.526Z,1226.00
2023-07-09T07:31:46.632Z,1224.00
2023-07-09T07:32:46.758Z,1232.00
2023-07-09T07:33:46.680Z,1236.00
2023-07-09T07:34:46.772Z,1220.00
2023-07-09T07:36:12.722Z,1228.00
2023-07-09T07:36:48.114Z,1229.00
2023-07-09T07:37:46.796Z,1223.00
2023-07-09T07:38:46.782Z,1215.00
2023-07-09T07:39:46.786Z,1201.00
2023-07-09T07:40:46.750Z,1200.00
2023-07-09T07:41:46.784Z,1181.00
2023-07-09T07:42:46.749Z,1174.00
2023-07-09T07:43:46.764Z,1167.00
2023-07-09T07:44:46.759Z,1143.00
2023-07-09T07:45:46.790Z,1153.00
2023-07-09T07:46:46.995Z,1142.00
2023-07-09T07:47:46.964Z,1143.00
2023-07-09T07:48:46.987Z,1135.00
2023-07-09T07:49:47.075Z,1132.00
2023-07-09T07:50:47.156Z,1119.00
2023-07-09T07:51:47.161Z,1108.00
2023-07-09T07:52:47.198Z,1106.00
2023-07-09T07:53:47.236Z,1119.00
2023-07-09T07:54:47.367Z,1126.00
2023-07-09T07:55:47.344Z,1127.00
2023-07-09T07:56:47.437Z,1125.00
2023-07-09T07:57:47.509Z,1091.00
2023-07-09T07:58:47.461Z,1097.00
2023-07-09T07:59:47.535Z,1074.00
2023-07-09T08:00:47.549Z,1069.00
2023-07-09T08:01:47.614Z,1053.00
2023-07-09T08:02:47.720Z,1056.00
2023-07-09T08:03:47.707Z,1062.00
2023-07-09T08:04:47.719Z,1028.00
2023-07-09T08:05:47.748Z,1029.00
2023-07-09T08:06:47.798Z,1016.00
2023-07-09T08:07:47.838Z,1018.00
2023-07-09T08:08:47.859Z,1028.00
2023-07-09T08:09:47.879Z,1010.00
2023-07-09T08:10:47.937Z,995.00
2023-07-09T08:11:47.977Z,984.00
2023-07-09T08:12:47.977Z,955.00
2023-07-09T08:13:48.064Z,935.00
2023-07-09T08:14:48.054Z,943.00
2023-07-09T08:15:48.162Z,930.00
2023-07-09T08:16:48.213Z,921.00
2023-07-09T08:17:48.304Z,907.00
2023-07-09T08:18:48.208Z,903.00
2023-07-09T08:19:48.231Z,894.00
2023-07-09T08:20:48.242Z,887.00
2023-07-09T08:21:48.248Z,886.00
2023-07-09T08:22:48.245Z,904.00
2023-07-09T08:23:48.276Z,912.00
2023-07-09T08:24:48.323Z,908.00
2023-07-09T08:25:48.339Z,917.00
2023-07-09T08:26:48.345Z,911.00
2023-07-09T08:27:48.375Z,935.00
2023-07-09T08:28:48.398Z,958.00
2023-07-09T08:29:48.442Z,973.00
2023-07-09T08:30:48.409Z,959.00
2023-07-09T08:31:48.497Z,962.00
2023-07-09T08:32:48.479Z,959.00
2023-07-09T08:33:48.487Z,953.00
2023-07-09T08:35:17.811Z,955.00
2023-07-09T08:35:49.562Z,956.00
2023-07-09T08:36:48.494Z,963.00
2023-07-09T08:37:48.502Z,967.00
2023-07-09T08:38:48.496Z,987.00
2023-07-09T08:39:48.475Z,991.00
2023-07-09T08:40:48.474Z,996.00
2023-07-09T08:41:48.453Z,997.00
2023-07-09T08:43:00.995Z,980.00
2023-07-09T08:43:49.406Z,982.00
2023-07-09T08:44:48.419Z,983.00
2023-07-09T08:45:48.493Z,987.00
2023-07-09T08:46:48.405Z,987.00
2023-07-09T08:47:48.449Z,990.00
2023-07-09T08:48:48.407Z,990.00
2023-07-09T08:49:48.450Z,1003.00
2023-07-09T08:50:48.413Z,1001.00
2023-07-09T08:51:48.385Z,1005.00
2023-07-09T08:52:50.438Z,998.00
2023-07-09T08:53:48.365Z,987.00
2023-07-09T08:54:48.358Z,982.00
2023-07-09T08:55:48.333Z,981.00
2023-07-09T08:56:48.338Z,972.00
2023-07-09T08:57:48.334Z,962.00
2023-07-09T08:58:48.326Z,952.00
2023-07-09T08:59:48.336Z,957.00
2023-07-09T09:00:48.319Z,931.00
2023-07-09T09:01:48.442Z,947.00
2023-07-09T09:02:48.391Z,947.00
2023-07-09T09:03:48.441Z,944.00
2023-07-09T09:04:48.370Z,960.00
2023-07-09T09:05:48.416Z,959.00
2023-07-09T09:06:48.446Z,966.00
2023-07-09T09:07:48.454Z,949.00
2023-07-09T09:08:48.460Z,960.00
2023-07-09T09:09:48.469Z,961.00
2023-07-09T09:10:48.523Z,956.00
2023-07-09T09:11:48.534Z,961.00
2023-07-09T09:12:48.555Z,958.00
2023-07-09T09:13:48.664Z,940.00
2023-07-09T09:14:48.575Z,945.00
2023-07-09T09:15:50.864Z,932.00
2023-07-09T09:16:48.638Z,936.00
2023-07-09T09:17:48.715Z,938.00
2023-07-09T09:18:48.707Z,932.00
2023-07-09T09:19:48.691Z,950.00
2023-07-09T09:20:48.760Z,955.00
2023-07-09T09:21:48.756Z,945.00
2023-07-09T09:22:48.800Z,956.00
2023-07-09T09:23:48.815Z,935.00
2023-07-09T09:24:48.863Z,932.00
2023-07-09T09:25:53.129Z,945.00
2023-07-09T09:26:49.857Z,946.00
2023-07-09T09:27:49.297Z,943.00
2023-07-09T09:28:48.840Z,947.00
2023-07-09T09:29:48.823Z,944.00
2023-07-09T09:30:48.880Z,960.00
2023-07-09T09:31:48.876Z,949.00
2023-07-09T09:32:48.886Z,957.00
2023-07-09T09:33:48.791Z,943.00
2023-07-09T09:34:48.789Z,915.00
2023-07-09T09:35:48.742Z,918.00
2023-07-09T09:36:48.760Z,888.00
2023-07-09T09:37:48.743Z,887.00
2023-07-09T09:38:48.750Z,881.00
2023-07-09T09:39:58.723Z,874.00
2023-07-09T09:40:49.716Z,875.00
2023-07-09T09:41:48.722Z,878.00
2023-07-09T09:42:48.709Z,884.00
2023-07-09T09:43:48.738Z,879.00
2023-07-09T09:44:48.708Z,893.00
2023-07-09T09:45:48.707Z,894.00
2023-07-09T09:46:48.723Z,910.00
2023-07-09T09:47:48.735Z,917.00
2023-07-09T09:48:48.683Z,918.00
2023-07-09T09:49:48.671Z,933.00
2023-07-09T09:50:48.635Z,946.00
2023-07-09T09:51:48.646Z,946.00
2023-07-09T09:52:48.666Z,946.00
2023-07-09T09:53:48.640Z,940.00
2023-07-09T09:54:48.637Z,941.00
2023-07-09T09:55:48.612Z,936.00
2023-07-09T09:56:48.614Z,927.00
2023-07-09T09:57:48.626Z,928.00
2023-07-09T09:58:48.602Z,928.00
2023-07-09T09:59:48.598Z,898.00
2023-07-09T10:00:48.633Z,893.00
2023-07-09T10:01:48.640Z,905.00
2023-07-09T10:02:48.692Z,895.00
2023-07-09T10:03:50.474Z,895.00
2023-07-09T10:04:48.567Z,908.00
2023-07-09T10:05:48.538Z,903.00
2023-07-09T10:06:48.533Z,897.00
2023-07-09T10:07:48.546Z,881.00
2023-07-09T10:08:48.541Z,848.00
2023-07-09T10:09:48.524Z,854.00
2023-07-09T10:10:48.528Z,856.00
2023-07-09T10:11:48.531Z,852.00
2023-07-09T10:12:48.490Z,844.00
2023-07-09T10:13:48.511Z,857.00
2023-07-09T10:14:48.499Z,833.00
2023-07-09T10:15:48.498Z,817.00
2023-07-09T10:16:48.463Z,821.00
2023-07-09T10:17:48.491Z,833.00
2023-07-09T10:18:48.513Z,837.00
2023-07-09T10:19:48.464Z,855.00
2023-07-09T10:20:48.451Z,848.00
2023-07-09T10:21:48.456Z,827.00
2023-07-09T10:22:48.433Z,815.00
2023-07-09T10:23:48.421Z,807.00
2023-07-09T10:24:48.414Z,829.00
2023-07-09T10:25:48.399Z,848.00
2023-07-09T10:26:48.399Z,869.00
2023-07-09T10:27:48.381Z,880.00
2023-07-09T10:28:48.390Z,869.00
2023-07-09T10:29:48.389Z,865.00
2023-07-09T10:30:48.369Z,862.00
2023-07-09T10:31:48.345Z,849.00
2023-07-09T10:32:48.387Z,847.00
2023-07-09T10:33:48.356Z,858.00
2023-07-09T10:34:48.325Z,864.00
2023-07-09T10:35:48.333Z,858.00
2023-07-09T10:36:48.322Z,861.00
2023-07-09T10:37:48.348Z,865.00
2023-07-09T10:38:48.321Z,872.00
2023-07-09T10:39:48.334Z,860.00
2023-07-09T10:40:48.300Z,850.00
2023-07-09T10:41:48.304Z,841.00
2023-07-09T10:42:48.259Z,838.00
2023-07-09T10:43:48.291Z,814.00
2023-07-09T10:44:48.292Z,814.00
2023-07-09T10:45:48.291Z,822.00
2023-07-09T10:46:48.286Z,805.00
2023-07-09T10:47:48.315Z,796.00
2023-07-09T10:48:48.255Z,779.00
2023-07-09T10:49:48.257Z,763.00
2023-07-09T10:50:48.248Z,747.00
2023-07-09T10:51:48.243Z,750.00
2023-07-09T10:52:48.245Z,758.00
2023-07-09T10:53:48.235Z,761.00
2023-07-09T10:54:48.194Z,761.00
2023-07-09T10:55:48.186Z,754.00
2023-07-09T10:56:48.220Z,746.00
2023-07-09T10:57:48.187Z,755.00
2023-07-09T10:58:48.198Z,749.00
2023-07-09T10:59:48.170Z,751.00
2023-07-09T11:00:48.178Z,750.00
2023-07-09T11:01:48.254Z,758.00
2023-07-09T11:02:48.192Z,755.00
2023-07-09T11:03:48.246Z,742.00
2023-07-09T11:04:48.157Z,751.00
2023-07-09T11:05:48.123Z,755.00
2023-07-09T11:06:48.114Z,763.00
2023-07-09T11:07:48.097Z,771.00
2023-07-09T11:08:48.125Z,771.00
2023-07-09T11:09:48.141Z,780.00
2023-07-09T11:10:48.090Z,758.00
2023-07-09T11:11:48.103Z,734.00
2023-07-09T11:12:48.095Z,732.00
2023-07-09T11:13:52.551Z,698.00
2023-07-09T11:14:49.063Z,699.00
2023-07-09T11:15:49.336Z,672.00
2023-07-09T11:16:48.157Z,666.00
2023-07-09T11:17:48.119Z,664.00
2023-07-09T11:18:48.045Z,661.00
2023-07-09T11:19:48.039Z,661.00
2023-07-09T11:20:48.039Z,657.00
2023-07-09T11:21:48.046Z,650.00
2023-07-09T11:22:47.998Z,646.00
2023-07-09T11:23:47.979Z,649.00
2023-07-09T11:24:47.984Z,649.00
2023-07-09T11:25:48.018Z,667.00
2023-07-09T11:26:47.988Z,690.00
2023-07-09T11:27:47.985Z,696.00
2023-07-09T11:28:47.983Z,687.00
2023-07-09T11:29:47.942Z,670.00
2023-07-09T11:30:47.977Z,673.00
2023-07-09T11:31:48.012Z,663.00
2023-07-09T11:32:48.171Z,675.00
2023-07-09T11:33:48.332Z,674.00
2023-07-09T11:34:48.128Z,695.00
2023-07-09T11:35:47.949Z,707.00
2023-07-09T11:36:47.999Z,709.00
2023-07-09T11:37:48.006Z,702.00
2023-07-09T11:38:48.382Z,695.00
2023-07-09T11:39:48.056Z,675.00
2023-07-09T11:40:48.053Z,662.00
2023-07-09T11:41:48.054Z,661.00
2023-07-09T11:42:48.086Z,660.00
2023-07-09T11:43:48.075Z,660.00
2023-07-09T11:44:48.063Z,654.00
2023-07-09T11:45:48.068Z,656.00
2023-07-09T11:46:48.041Z,653.00
2023-07-09T11:47:48.068Z,660.00
2023-07-09T11:48:48.013Z,660.00
2023-07-09T11:49:48.030Z,657.00
2023-07-09T11:50:48.026Z,648.00
2023-07-09T11:51:48.008Z,645.00
2023-07-09T11:52:48.031Z,641.00
2023-07-09T11:53:48.013Z,645.00
2023-07-09T11:54:47.996Z,644.00
2023-07-09T11:55:48.017Z,652.00
2023-07-09T11:56:48.025Z,654.00
2023-07-09T11:57:48.012Z,652.00
2023-07-09T11:58:47.988Z,651.00
2023-07-09T11:59:48.003Z,646.00
2023-07-09T12:00:47.982Z,641.00
2023-07-09T12:01:48.148Z,645.00
2023-07-09T12:02:48.034Z,639.00
2023-07-09T12:03:47.982Z,641.00
2023-07-09T12:04:48.007Z,640.00
2023-07-09T12:05:47.998Z,634.00
2023-07-09T12:06:47.975Z,629.00
2023-07-09T12:07:47.998Z,624.00
2023-07-09T12:08:48.020Z,624.00
2023-07-09T12:09:47.989Z,612.00
2023-07-09T12:10:47.984Z,606.00
2023-07-09T12:11:48.032Z,589.00
2023-07-09T12:12:48.024Z,582.00
2023-07-09T12:13:48.018Z,572.00